sensor_id;sensor_type;location;lat;lon;timestamp;temperature;humidity
16829;DHT22;8531;48.078;11.968;2023-03-16T00:01:17;2.80;99.90
16829;DHT22;8531;48.078;11.968;2023-03-16T00:03:43;2.80;99.90
16829;DHT22;8531;48.078;11.968;2023-03-16T00:06:09;2.70;99.90
16829;DHT22;8531;48.078;11.968;2023-03-16T00:08:35;2.70;99.90
16829;DHT22;8531;48.078;11.968;2023-03-16T00:11:01;2.70;99.90
16829;DHT22;8531;48.078;11.968;2023-03-16T00:13:27;2.60;99.90
16829;DHT22;8531;48.078;11.968;2023-03-16T00:15:58;2.80;99.90
16829;DHT22;8531;48.078;11.968;2023-03-16T00:18:26;2.80;99.90
16829;DHT22;8531;48.078;11.968;2023-03-16T00:20:58;2.80;99.90
16829;DHT22;8531;48.078;11.968;2023-03-16T00:23:24;2.80;99.90
16829;DHT22;8531;48.078;11.968;2023-03-16T00:25:57;2.70;99.90
16829;DHT22;8531;48.078;11.968;2023-03-16T00:28:23;2.70;99.90
16829;DHT22;8531;48.078;11.968;2023-03-16T00:30:49;2.60;99.90
16829;DHT22;8531;48.078;11.968;2023-03-16T00:33:15;2.50;99.90
16829;DHT22;8531;48.078;11.968;2023-03-16T00:35:45;2.60;99.90
16829;DHT22;8531;48.078;11.968;2023-03-16T00:38:18;2.70;99.90
16829;DHT22;8531;48.078;11.968;2023-03-16T00:40:44;2.70;99.90
16829;DHT22;8531;48.078;11.968;2023-03-16T00:43:10;2.60;99.90
16829;DHT22;8531;48.078;11.968;2023-03-16T00:45:36;2.70;99.90
16829;DHT22;8531;48.078;11.968;2023-03-16T00:48:02;2.60;99.90
16829;DHT22;8531;48.078;11.968;2023-03-16T00:50:28;2.50;99.90
16829;DHT22;8531;48.078;11.968;2023-03-16T00:52:54;2.40;99.90
16829;DHT22;8531;48.078;11.968;2023-03-16T00:55:20;2.40;99.90
16829;DHT22;8531;48.078;11.968;2023-03-16T00:57:45;2.40;99.90
16829;DHT22;8531;48.078;11.968;2023-03-16T01:00:12;2.40;99.90
16829;DHT22;8531;48.078;11.968;2023-03-16T01:02:42;2.30;99.90
16829;DHT22;8531;48.078;11.968;2023-03-16T01:05:10;2.40;99.90
16829;DHT22;8531;48.078;11.968;2023-03-16T01:07:40;2.50;99.90
16829;DHT22;8531;48.078;11.968;2023-03-16T01:10:07;2.50;99.90
16829;DHT22;8531;48.078;11.968;2023-03-16T01:12:33;2.60;99.90
16829;DHT22;8531;48.078;11.968;2023-03-16T01:14:59;2.60;99.90
16829;DHT22;8531;48.078;11.968;2023-03-16T01:17:25;2.60;99.90
16829;DHT22;8531;48.078;11.968;2023-03-16T01:19:51;2.60;99.90
16829;DHT22;8531;48.078;11.968;2023-03-16T01:22:17;2.60;99.90
16829;DHT22;8531;48.078;11.968;2023-03-16T01:24:43;2.60;99.90
16829;DHT22;8531;48.078;11.968;2023-03-16T01:27:10;2.50;99.90
16829;DHT22;8531;48.078;11.968;2023-03-16T01:29:37;2.50;99.90
16829;DHT22;8531;48.078;11.968;2023-03-16T01:32:03;2.50;99.90
16829;DHT22;8531;48.078;11.968;2023-03-16T01:34:30;2.40;99.90
16829;DHT22;8531;48.078;11.968;2023-03-16T01:36:56;2.50;99.90
16829;DHT22;8531;48.078;11.968;2023-03-16T01:39:22;2.50;99.90
16829;DHT22;8531;48.078;11.968;2023-03-16T01:41:48;2.50;99.90
16829;DHT22;8531;48.078;11.968;2023-03-16T01:44:16;2.30;99.90
16829;DHT22;8531;48.078;11.968;2023-03-16T01:46:42;2.20;99.90
16829;DHT22;8531;48.078;11.968;2023-03-16T01:49:30;2.00;99.90
16829;DHT22;8531;48.078;11.968;2023-03-16T01:52:10;1.90;99.90
16829;DHT22;8531;48.078;11.968;2023-03-16T01:55:24;1.80;99.90
16829;DHT22;8531;48.078;11.968;2023-03-16T01:57:37;1.70;99.90
16829;DHT22;8531;48.078;11.968;2023-03-16T02:00:15;1.70;99.90
16829;DHT22;8531;48.078;11.968;2023-03-16T02:02:50;1.70;99.90
16829;DHT22;8531;48.078;11.968;2023-03-16T02:07:53;1.60;99.90
16829;DHT22;8531;48.078;11.968;2023-03-16T02:10:25;1.60;99.90
16829;DHT22;8531;48.078;11.968;2023-03-16T02:12:53;1.50;99.90
16829;DHT22;8531;48.078;11.968;2023-03-16T02:15:19;1.50;99.90
16829;DHT22;8531;48.078;11.968;2023-03-16T02:17:46;1.40;99.90
16829;DHT22;8531;48.078;11.968;2023-03-16T02:20:39;1.40;99.90
16829;DHT22;8531;48.078;11.968;2023-03-16T02:23:09;1.50;99.90
16829;DHT22;8531;48.078;11.968;2023-03-16T02:30:52;1.30;99.90
16829;DHT22;8531;48.078;11.968;2023-03-16T02:33:18;1.30;99.90
16829;DHT22;8531;48.078;11.968;2023-03-16T02:35:45;1.30;99.90
16829;DHT22;8531;48.078;11.968;2023-03-16T02:38:11;1.30;99.90
16829;DHT22;8531;48.078;11.968;2023-03-16T02:40:37;1.30;99.90
16829;DHT22;8531;48.078;11.968;2023-03-16T02:43:06;1.30;99.90
16829;DHT22;8531;48.078;11.968;2023-03-16T02:45:46;1.40;99.90
16829;DHT22;8531;48.078;11.968;2023-03-16T02:48:20;1.20;99.90
16829;DHT22;8531;48.078;11.968;2023-03-16T02:50:50;1.10;99.90
16829;DHT22;8531;48.078;11.968;2023-03-16T02:53:16;1.10;99.90
16829;DHT22;8531;48.078;11.968;2023-03-16T02:55:42;1.10;99.90
16829;DHT22;8531;48.078;11.968;2023-03-16T02:58:09;1.00;99.90
16829;DHT22;8531;48.078;11.968;2023-03-16T03:00:36;1.00;99.90
16829;DHT22;8531;48.078;11.968;2023-03-16T03:03:03;0.90;99.90
16829;DHT22;8531;48.078;11.968;2023-03-16T03:05:29;0.80;99.90
16829;DHT22;8531;48.078;11.968;2023-03-16T03:07:55;0.80;99.90
16829;DHT22;8531;48.078;11.968;2023-03-16T03:10:21;0.80;99.90
16829;DHT22;8531;48.078;11.968;2023-03-16T03:12:47;0.80;99.90
16829;DHT22;8531;48.078;11.968;2023-03-16T03:15:15;0.80;99.90
16829;DHT22;8531;48.078;11.968;2023-03-16T03:17:41;0.80;99.90
16829;DHT22;8531;48.078;11.968;2023-03-16T03:20:09;0.70;99.90
16829;DHT22;8531;48.078;11.968;2023-03-16T03:22:40;0.60;99.90
16829;DHT22;8531;48.078;11.968;2023-03-16T03:25:06;0.40;99.90
16829;DHT22;8531;48.078;11.968;2023-03-16T03:27:33;0.50;99.90
16829;DHT22;8531;48.078;11.968;2023-03-16T03:29:59;0.50;99.90
16829;DHT22;8531;48.078;11.968;2023-03-16T03:32:24;0.40;99.90
16829;DHT22;8531;48.078;11.968;2023-03-16T03:34:50;0.30;99.90
16829;DHT22;8531;48.078;11.968;2023-03-16T03:37:17;0.20;99.90
16829;DHT22;8531;48.078;11.968;2023-03-16T03:39:43;0.10;99.90
16829;DHT22;8531;48.078;11.968;2023-03-16T03:42:10;0.10;99.90
16829;DHT22;8531;48.078;11.968;2023-03-16T03:44:36;0.00;99.90
16829;DHT22;8531;48.078;11.968;2023-03-16T03:47:02;-0.10;99.90
16829;DHT22;8531;48.078;11.968;2023-03-16T03:49:28;-0.10;99.90
16829;DHT22;8531;48.078;11.968;2023-03-16T03:51:54;-0.20;99.90
16829;DHT22;8531;48.078;11.968;2023-03-16T03:54:21;-0.30;99.90
16829;DHT22;8531;48.078;11.968;2023-03-16T03:56:47;-0.40;99.90
16829;DHT22;8531;48.078;11.968;2023-03-16T03:59:12;-0.50;99.90
16829;DHT22;8531;48.078;11.968;2023-03-16T04:01:38;-0.50;99.90
16829;DHT22;8531;48.078;11.968;2023-03-16T04:04:03;-0.40;99.90
16829;DHT22;8531;48.078;11.968;2023-03-16T04:06:29;-0.40;99.90
16829;DHT22;8531;48.078;11.968;2023-03-16T04:08:55;-0.50;99.90
16829;DHT22;8531;48.078;11.968;2023-03-16T04:11:21;-0.50;99.90
16829;DHT22;8531;48.078;11.968;2023-03-16T04:13:49;-0.50;99.90
16829;DHT22;8531;48.078;11.968;2023-03-16T04:16:15;-0.60;99.90
16829;DHT22;8531;48.078;11.968;2023-03-16T04:18:41;-0.60;99.90
16829;DHT22;8531;48.078;11.968;2023-03-16T04:21:13;-0.60;99.90
16829;DHT22;8531;48.078;11.968;2023-03-16T04:23:40;-0.60;99.90
16829;DHT22;8531;48.078;11.968;2023-03-16T04:26:07;-0.60;99.90
16829;DHT22;8531;48.078;11.968;2023-03-16T04:28:32;-0.70;99.90
16829;DHT22;8531;48.078;11.968;2023-03-16T04:31:06;-0.70;99.90
16829;DHT22;8531;48.078;11.968;2023-03-16T04:33:33;-0.80;99.90
16829;DHT22;8531;48.078;11.968;2023-03-16T04:36:00;-0.80;99.90
16829;DHT22;8531;48.078;11.968;2023-03-16T04:38:28;-0.90;99.90
16829;DHT22;8531;48.078;11.968;2023-03-16T04:40:54;-0.70;99.90
16829;DHT22;8531;48.078;11.968;2023-03-16T04:43:20;-0.80;99.90
16829;DHT22;8531;48.078;11.968;2023-03-16T04:45:47;-0.70;99.90
16829;DHT22;8531;48.078;11.968;2023-03-16T04:48:13;-0.80;99.90
16829;DHT22;8531;48.078;11.968;2023-03-16T04:50:38;-0.70;99.90
16829;DHT22;8531;48.078;11.968;2023-03-16T04:53:05;-0.80;99.90
16829;DHT22;8531;48.078;11.968;2023-03-16T04:55:31;-0.70;99.90
16829;DHT22;8531;48.078;11.968;2023-03-16T04:57:57;-0.70;99.90
16829;DHT22;8531;48.078;11.968;2023-03-16T05:00:22;-0.70;99.90
16829;DHT22;8531;48.078;11.968;2023-03-16T05:02:49;-0.80;99.90
16829;DHT22;8531;48.078;11.968;2023-03-16T05:05:16;-0.70;99.90
16829;DHT22;8531;48.078;11.968;2023-03-16T05:07:43;-0.80;99.90
16829;DHT22;8531;48.078;11.968;2023-03-16T05:10:11;-0.80;99.90
16829;DHT22;8531;48.078;11.968;2023-03-16T05:12:37;-0.70;99.90
16829;DHT22;8531;48.078;11.968;2023-03-16T05:15:04;-0.70;99.90
16829;DHT22;8531;48.078;11.968;2023-03-16T05:17:30;-0.80;99.90
16829;DHT22;8531;48.078;11.968;2023-03-16T05:19:56;-0.80;99.90
16829;DHT22;8531;48.078;11.968;2023-03-16T05:22:21;-0.80;99.90
16829;DHT22;8531;48.078;11.968;2023-03-16T05:24:47;-0.80;99.90
16829;DHT22;8531;48.078;11.968;2023-03-16T05:27:13;-0.70;99.90
16829;DHT22;8531;48.078;11.968;2023-03-16T05:29:39;-0.80;99.90
16829;DHT22;8531;48.078;11.968;2023-03-16T05:32:05;-0.70;99.90
16829;DHT22;8531;48.078;11.968;2023-03-16T05:34:31;-0.60;99.90
16829;DHT22;8531;48.078;11.968;2023-03-16T05:36:57;-0.60;99.90
16829;DHT22;8531;48.078;11.968;2023-03-16T05:39:23;-0.60;99.90
16829;DHT22;8531;48.078;11.968;2023-03-16T05:41:48;-0.70;99.90
16829;DHT22;8531;48.078;11.968;2023-03-16T05:44:14;-0.60;99.90
16829;DHT22;8531;48.078;11.968;2023-03-16T05:46:40;-0.50;99.90
16829;DHT22;8531;48.078;11.968;2023-03-16T05:49:06;-0.50;99.90
16829;DHT22;8531;48.078;11.968;2023-03-16T05:51:32;-0.40;99.90
16829;DHT22;8531;48.078;11.968;2023-03-16T05:53:57;-0.40;99.90
16829;DHT22;8531;48.078;11.968;2023-03-16T05:56:24;-0.40;99.90
16829;DHT22;8531;48.078;11.968;2023-03-16T05:58:51;-0.40;99.90
16829;DHT22;8531;48.078;11.968;2023-03-16T06:01:18;-0.40;99.90
16829;DHT22;8531;48.078;11.968;2023-03-16T06:03:45;-0.40;99.90
16829;DHT22;8531;48.078;11.968;2023-03-16T06:06:11;-0.30;99.90
16829;DHT22;8531;48.078;11.968;2023-03-16T06:08:37;-0.20;99.90
16829;DHT22;8531;48.078;11.968;2023-03-16T06:11:03;-0.10;99.90
16829;DHT22;8531;48.078;11.968;2023-03-16T06:13:29;-0.10;99.90
16829;DHT22;8531;48.078;11.968;2023-03-16T06:15:55;-0.20;99.90
16829;DHT22;8531;48.078;11.968;2023-03-16T06:18:20;-0.10;99.90
16829;DHT22;8531;48.078;11.968;2023-03-16T06:20:46;0.00;99.90
16829;DHT22;8531;48.078;11.968;2023-03-16T06:23:12;0.20;99.90
16829;DHT22;8531;48.078;11.968;2023-03-16T06:25:38;0.30;99.90
16829;DHT22;8531;48.078;11.968;2023-03-16T06:28:04;0.40;99.90
16829;DHT22;8531;48.078;11.968;2023-03-16T06:30:30;0.30;99.90
16829;DHT22;8531;48.078;11.968;2023-03-16T06:32:56;0.40;99.90
16829;DHT22;8531;48.078;11.968;2023-03-16T06:35:24;0.50;99.90
16829;DHT22;8531;48.078;11.968;2023-03-16T06:37:50;0.50;99.90
16829;DHT22;8531;48.078;11.968;2023-03-16T06:40:16;0.50;99.90
16829;DHT22;8531;48.078;11.968;2023-03-16T06:42:42;0.60;99.90
16829;DHT22;8531;48.078;11.968;2023-03-16T06:45:08;0.70;99.90
16829;DHT22;8531;48.078;11.968;2023-03-16T06:47:35;0.70;99.90
16829;DHT22;8531;48.078;11.968;2023-03-16T06:50:01;0.80;99.90
16829;DHT22;8531;48.078;11.968;2023-03-16T06:52:27;0.90;99.90
16829;DHT22;8531;48.078;11.968;2023-03-16T06:54:52;0.90;99.90
16829;DHT22;8531;48.078;11.968;2023-03-16T06:57:18;1.00;99.90
16829;DHT22;8531;48.078;11.968;2023-03-16T06:59:44;1.10;99.90
16829;DHT22;8531;48.078;11.968;2023-03-16T07:02:12;1.10;99.90
16829;DHT22;8531;48.078;11.968;2023-03-16T07:04:39;1.10;99.90
16829;DHT22;8531;48.078;11.968;2023-03-16T07:07:06;1.10;99.90
16829;DHT22;8531;48.078;11.968;2023-03-16T07:09:31;1.10;99.90
16829;DHT22;8531;48.078;11.968;2023-03-16T07:11:57;1.20;99.90
16829;DHT22;8531;48.078;11.968;2023-03-16T07:14:23;1.20;99.90
16829;DHT22;8531;48.078;11.968;2023-03-16T07:16:50;1.20;99.90
16829;DHT22;8531;48.078;11.968;2023-03-16T07:19:17;1.20;99.90
16829;DHT22;8531;48.078;11.968;2023-03-16T07:21:43;1.10;99.90
16829;DHT22;8531;48.078;11.968;2023-03-16T07:24:09;1.20;99.90
16829;DHT22;8531;48.078;11.968;2023-03-16T07:26:35;1.10;99.90
16829;DHT22;8531;48.078;11.968;2023-03-16T07:29:02;1.30;99.90
16829;DHT22;8531;48.078;11.968;2023-03-16T07:31:31;1.40;99.90
16829;DHT22;8531;48.078;11.968;2023-03-16T07:33:57;1.40;99.90
16829;DHT22;8531;48.078;11.968;2023-03-16T07:36:23;1.50;99.90
16829;DHT22;8531;48.078;11.968;2023-03-16T07:38:48;1.60;99.90
16829;DHT22;8531;48.078;11.968;2023-03-16T07:41:16;1.50;99.90
16829;DHT22;8531;48.078;11.968;2023-03-16T07:43:41;1.40;99.90
16829;DHT22;8531;48.078;11.968;2023-03-16T07:46:11;1.50;99.90
16829;DHT22;8531;48.078;11.968;2023-03-16T07:48:42;1.60;99.90
16829;DHT22;8531;48.078;11.968;2023-03-16T07:51:09;1.50;99.90
16829;DHT22;8531;48.078;11.968;2023-03-16T07:53:34;1.50;99.90
16829;DHT22;8531;48.078;11.968;2023-03-16T07:56:00;1.40;99.90
16829;DHT22;8531;48.078;11.968;2023-03-16T07:58:26;1.30;99.90
16829;DHT22;8531;48.078;11.968;2023-03-16T08:00:56;1.30;99.90
16829;DHT22;8531;48.078;11.968;2023-03-16T08:03:23;1.30;99.90
16829;DHT22;8531;48.078;11.968;2023-03-16T08:05:49;1.30;99.90
16829;DHT22;8531;48.078;11.968;2023-03-16T08:08:16;1.30;99.90
16829;DHT22;8531;48.078;11.968;2023-03-16T08:10:42;1.30;99.90
16829;DHT22;8531;48.078;11.968;2023-03-16T08:13:08;1.60;99.90
16829;DHT22;8531;48.078;11.968;2023-03-16T08:15:34;1.70;99.90
16829;DHT22;8531;48.078;11.968;2023-03-16T08:18:00;1.80;99.90
16829;DHT22;8531;48.078;11.968;2023-03-16T08:20:37;1.80;99.90
16829;DHT22;8531;48.078;11.968;2023-03-16T08:23:03;1.80;99.90
16829;DHT22;8531;48.078;11.968;2023-03-16T08:25:28;1.80;99.90
16829;DHT22;8531;48.078;11.968;2023-03-16T08:27:54;2.00;99.90
16829;DHT22;8531;48.078;11.968;2023-03-16T08:30:22;1.90;99.90
16829;DHT22;8531;48.078;11.968;2023-03-16T08:32:50;1.90;99.90
16829;DHT22;8531;48.078;11.968;2023-03-16T08:35:16;1.90;99.90
16829;DHT22;8531;48.078;11.968;2023-03-16T08:37:42;2.00;99.90
16829;DHT22;8531;48.078;11.968;2023-03-16T08:40:10;1.90;99.90
16829;DHT22;8531;48.078;11.968;2023-03-16T08:42:38;1.90;99.90
16829;DHT22;8531;48.078;11.968;2023-03-16T08:45:08;2.10;99.90
16829;DHT22;8531;48.078;11.968;2023-03-16T08:47:37;2.20;99.90
16829;DHT22;8531;48.078;11.968;2023-03-16T08:50:05;2.20;99.90
16829;DHT22;8531;48.078;11.968;2023-03-16T08:52:32;2.20;99.90
16829;DHT22;8531;48.078;11.968;2023-03-16T08:54:59;2.20;99.90
16829;DHT22;8531;48.078;11.968;2023-03-16T08:57:25;2.20;99.90
16829;DHT22;8531;48.078;11.968;2023-03-16T08:59:51;2.00;99.90
16829;DHT22;8531;48.078;11.968;2023-03-16T09:02:17;2.10;99.90
16829;DHT22;8531;48.078;11.968;2023-03-16T09:04:43;2.10;99.90
16829;DHT22;8531;48.078;11.968;2023-03-16T09:07:08;2.10;99.90
16829;DHT22;8531;48.078;11.968;2023-03-16T09:09:35;2.10;99.90
16829;DHT22;8531;48.078;11.968;2023-03-16T09:12:02;2.20;99.90
16829;DHT22;8531;48.078;11.968;2023-03-16T09:14:29;2.10;99.90
16829;DHT22;8531;48.078;11.968;2023-03-16T09:16:55;2.10;99.90
16829;DHT22;8531;48.078;11.968;2023-03-16T09:19:21;2.30;99.90
16829;DHT22;8531;48.078;11.968;2023-03-16T09:21:47;2.40;99.90
16829;DHT22;8531;48.078;11.968;2023-03-16T09:24:13;2.40;99.90
16829;DHT22;8531;48.078;11.968;2023-03-16T09:26:39;2.50;99.90
16829;DHT22;8531;48.078;11.968;2023-03-16T09:29:04;2.60;99.90
16829;DHT22;8531;48.078;11.968;2023-03-16T09:31:32;2.60;99.90
16829;DHT22;8531;48.078;11.968;2023-03-16T09:33:58;2.70;99.90
16829;DHT22;8531;48.078;11.968;2023-03-16T09:36:24;2.70;99.90
16829;DHT22;8531;48.078;11.968;2023-03-16T09:38:51;2.80;99.90
16829;DHT22;8531;48.078;11.968;2023-03-16T09:41:56;2.80;99.90
16829;DHT22;8531;48.078;11.968;2023-03-16T09:44:42;2.90;99.90
16829;DHT22;8531;48.078;11.968;2023-03-16T09:47:11;2.90;99.90
16829;DHT22;8531;48.078;11.968;2023-03-16T09:49:46;2.90;99.90
16829;DHT22;8531;48.078;11.968;2023-03-16T09:57:31;3.20;99.90
16829;DHT22;8531;48.078;11.968;2023-03-16T10:05:10;3.20;99.90
16829;DHT22;8531;48.078;11.968;2023-03-16T10:08:00;3.20;99.90
16829;DHT22;8531;48.078;11.968;2023-03-16T10:13:47;3.40;99.90
16829;DHT22;8531;48.078;11.968;2023-03-16T10:19:02;3.70;99.90
16829;DHT22;8531;48.078;11.968;2023-03-16T10:21:37;4.00;99.90
16829;DHT22;8531;48.078;11.968;2023-03-16T10:24:09;4.20;99.90
16829;DHT22;8531;48.078;11.968;2023-03-16T10:26:42;4.50;99.90
16829;DHT22;8531;48.078;11.968;2023-03-16T10:29:11;4.70;99.90
16829;DHT22;8531;48.078;11.968;2023-03-16T10:31:38;5.20;99.90
16829;DHT22;8531;48.078;11.968;2023-03-16T10:34:06;5.60;99.90
16829;DHT22;8531;48.078;11.968;2023-03-16T10:36:34;5.90;99.90
16829;DHT22;8531;48.078;11.968;2023-03-16T10:39:05;5.60;99.90
16829;DHT22;8531;48.078;11.968;2023-03-16T10:41:36;5.60;99.90
16829;DHT22;8531;48.078;11.968;2023-03-16T10:44:14;5.80;99.90
16829;DHT22;8531;48.078;11.968;2023-03-16T10:46:44;5.90;99.90
16829;DHT22;8531;48.078;11.968;2023-03-16T10:49:36;6.10;99.90
16829;DHT22;8531;48.078;11.968;2023-03-16T10:54:38;5.90;99.90
16829;DHT22;8531;48.078;11.968;2023-03-16T10:57:31;6.20;99.90
16829;DHT22;8531;48.078;11.968;2023-03-16T11:00:21;6.40;99.90
16829;DHT22;8531;48.078;11.968;2023-03-16T11:02:53;6.70;99.90
16829;DHT22;8531;48.078;11.968;2023-03-16T11:05:32;7.10;99.90
16829;DHT22;8531;48.078;11.968;2023-03-16T11:10:32;7.70;99.90
16829;DHT22;8531;48.078;11.968;2023-03-16T11:13:22;7.80;99.90
16829;DHT22;8531;48.078;11.968;2023-03-16T11:15:55;8.30;99.90
16829;DHT22;8531;48.078;11.968;2023-03-16T11:18:27;8.20;99.90
16829;DHT22;8531;48.078;11.968;2023-03-16T11:20:55;8.40;99.90
16829;DHT22;8531;48.078;11.968;2023-03-16T11:23:31;8.60;99.90
16829;DHT22;8531;48.078;11.968;2023-03-16T11:25:59;8.50;99.90
16829;DHT22;8531;48.078;11.968;2023-03-16T11:28:39;8.90;99.90
16829;DHT22;8531;48.078;11.968;2023-03-16T11:31:18;9.00;99.90
16829;DHT22;8531;48.078;11.968;2023-03-16T11:33:46;9.00;99.90
16829;DHT22;8531;48.078;11.968;2023-03-16T11:39:23;8.80;99.90
16829;DHT22;8531;48.078;11.968;2023-03-16T11:42:53;9.30;99.90
16829;DHT22;8531;48.078;11.968;2023-03-16T11:44:54;8.80;99.90
16829;DHT22;8531;48.078;11.968;2023-03-16T12:06:49;9.90;99.90
16829;DHT22;8531;48.078;11.968;2023-03-16T12:11:55;9.90;99.90
16829;DHT22;8531;48.078;11.968;2023-03-16T12:14:33;10.00;99.90
16829;DHT22;8531;48.078;11.968;2023-03-16T12:17:18;10.10;99.90
16829;DHT22;8531;48.078;11.968;2023-03-16T12:20:19;10.30;99.90
16829;DHT22;8531;48.078;11.968;2023-03-16T12:25:22;10.30;99.90
16829;DHT22;8531;48.078;11.968;2023-03-16T12:27:54;10.40;99.90
16829;DHT22;8531;48.078;11.968;2023-03-16T12:46:47;10.80;99.90
16829;DHT22;8531;48.078;11.968;2023-03-16T12:49:18;10.80;99.90
16829;DHT22;8531;48.078;11.968;2023-03-16T12:51:45;10.30;99.90
16829;DHT22;8531;48.078;11.968;2023-03-16T12:54:22;10.50;99.90
16829;DHT22;8531;48.078;11.968;2023-03-16T12:56:49;10.40;99.90
16829;DHT22;8531;48.078;11.968;2023-03-16T12:59:21;10.80;99.90
16829;DHT22;8531;48.078;11.968;2023-03-16T13:01:50;11.40;99.90
16829;DHT22;8531;48.078;11.968;2023-03-16T13:04:21;11.50;99.90
16829;DHT22;8531;48.078;11.968;2023-03-16T13:07:13;11.60;99.90
16829;DHT22;8531;48.078;11.968;2023-03-16T13:09:43;11.80;99.90
16829;DHT22;8531;48.078;11.968;2023-03-16T13:12:31;11.90;99.90
16829;DHT22;8531;48.078;11.968;2023-03-16T13:15:02;12.40;99.90
16829;DHT22;8531;48.078;11.968;2023-03-16T13:17:41;12.70;99.90
16829;DHT22;8531;48.078;11.968;2023-03-16T13:22:47;12.70;99.90
16829;DHT22;8531;48.078;11.968;2023-03-16T13:25:21;12.30;99.90
16829;DHT22;8531;48.078;11.968;2023-03-16T13:27:51;12.40;99.90
16829;DHT22;8531;48.078;11.968;2023-03-16T13:30:22;12.20;99.90
16829;DHT22;8531;48.078;11.968;2023-03-16T13:33:01;12.30;99.90
16829;DHT22;8531;48.078;11.968;2023-03-16T13:35:31;12.30;99.90
16829;DHT22;8531;48.078;11.968;2023-03-16T13:38:04;12.30;99.90
16829;DHT22;8531;48.078;11.968;2023-03-16T13:40:31;12.20;99.90
16829;DHT22;8531;48.078;11.968;2023-03-16T13:42:57;12.20;99.90
16829;DHT22;8531;48.078;11.968;2023-03-16T13:45:30;12.10;99.90
16829;DHT22;8531;48.078;11.968;2023-03-16T13:47:59;12.40;99.90
16829;DHT22;8531;48.078;11.968;2023-03-16T13:50:25;12.20;99.90
16829;DHT22;8531;48.078;11.968;2023-03-16T13:53:01;12.30;99.90
16829;DHT22;8531;48.078;11.968;2023-03-16T13:55:32;12.20;99.90
16829;DHT22;8531;48.078;11.968;2023-03-16T13:58:00;12.10;99.90
16829;DHT22;8531;48.078;11.968;2023-03-16T14:00:30;12.10;99.90
16829;DHT22;8531;48.078;11.968;2023-03-16T14:03:02;12.30;99.90
16829;DHT22;8531;48.078;11.968;2023-03-16T14:05:34;11.90;99.90
16829;DHT22;8531;48.078;11.968;2023-03-16T14:08:00;11.80;99.90
16829;DHT22;8531;48.078;11.968;2023-03-16T14:10:34;12.30;99.90
16829;DHT22;8531;48.078;11.968;2023-03-16T14:15:48;12.30;99.90
16829;DHT22;8531;48.078;11.968;2023-03-16T14:18:17;12.10;99.90
16829;DHT22;8531;48.078;11.968;2023-03-16T14:20:54;12.30;99.90
16829;DHT22;8531;48.078;11.968;2023-03-16T14:23:35;12.40;99.90
16829;DHT22;8531;48.078;11.968;2023-03-16T14:26:04;12.60;99.90
16829;DHT22;8531;48.078;11.968;2023-03-16T14:28:31;12.60;99.90
16829;DHT22;8531;48.078;11.968;2023-03-16T14:31:07;12.70;99.90
16829;DHT22;8531;48.078;11.968;2023-03-16T14:33:36;13.00;99.90
16829;DHT22;8531;48.078;11.968;2023-03-16T14:36:18;13.20;99.90
16829;DHT22;8531;48.078;11.968;2023-03-16T14:38:46;13.10;99.90
16829;DHT22;8531;48.078;11.968;2023-03-16T14:41:24;13.20;99.90
16829;DHT22;8531;48.078;11.968;2023-03-16T14:43:54;13.00;99.90
16829;DHT22;8531;48.078;11.968;2023-03-16T14:46:30;13.30;99.90
16829;DHT22;8531;48.078;11.968;2023-03-16T14:49:21;13.10;99.90
16829;DHT22;8531;48.078;11.968;2023-03-16T14:51:50;12.70;99.90
16829;DHT22;8531;48.078;11.968;2023-03-16T14:54:19;13.20;99.90
16829;DHT22;8531;48.078;11.968;2023-03-16T14:56:54;13.00;99.90
16829;DHT22;8531;48.078;11.968;2023-03-16T14:59:23;12.60;99.90
16829;DHT22;8531;48.078;11.968;2023-03-16T15:01:49;12.30;99.90
16829;DHT22;8531;48.078;11.968;2023-03-16T15:04:45;12.30;99.90
16829;DHT22;8531;48.078;11.968;2023-03-16T15:07:23;12.40;99.90
16829;DHT22;8531;48.078;11.968;2023-03-16T15:09:51;12.60;99.90
16829;DHT22;8531;48.078;11.968;2023-03-16T15:12:19;12.50;99.90
16829;DHT22;8531;48.078;11.968;2023-03-16T15:14:46;12.80;99.90
16829;DHT22;8531;48.078;11.968;2023-03-16T15:17:30;12.90;99.90
16829;DHT22;8531;48.078;11.968;2023-03-16T15:19:57;12.70;99.90
16829;DHT22;8531;48.078;11.968;2023-03-16T15:22:35;12.70;99.90
16829;DHT22;8531;48.078;11.968;2023-03-16T15:27:42;12.60;99.90
16829;DHT22;8531;48.078;11.968;2023-03-16T15:30:24;12.90;99.90
16829;DHT22;8531;48.078;11.968;2023-03-16T15:32:50;12.60;99.90
16829;DHT22;8531;48.078;11.968;2023-03-16T15:35:16;12.60;99.90
16829;DHT22;8531;48.078;11.968;2023-03-16T15:37:42;12.40;99.90
16829;DHT22;8531;48.078;11.968;2023-03-16T15:40:20;12.40;99.90
16829;DHT22;8531;48.078;11.968;2023-03-16T15:42:47;12.20;99.90
16829;DHT22;8531;48.078;11.968;2023-03-16T15:45:16;12.10;99.90
16829;DHT22;8531;48.078;11.968;2023-03-16T15:47:43;12.20;99.90
16829;DHT22;8531;48.078;11.968;2023-03-16T15:50:10;12.10;99.90
16829;DHT22;8531;48.078;11.968;2023-03-16T15:52:38;11.90;99.90
16829;DHT22;8531;48.078;11.968;2023-03-16T15:55:18;11.80;99.90
16829;DHT22;8531;48.078;11.968;2023-03-16T15:57:44;11.90;99.90
16829;DHT22;8531;48.078;11.968;2023-03-16T16:02:51;11.60;99.90
16829;DHT22;8531;48.078;11.968;2023-03-16T16:05:16;11.20;99.90
16829;DHT22;8531;48.078;11.968;2023-03-16T16:07:42;11.10;99.90
16829;DHT22;8531;48.078;11.968;2023-03-16T16:10:11;10.80;99.90
16829;DHT22;8531;48.078;11.968;2023-03-16T16:12:37;10.70;99.90
16829;DHT22;8531;48.078;11.968;2023-03-16T16:15:14;10.80;99.90
16829;DHT22;8531;48.078;11.968;2023-03-16T16:17:42;10.60;99.90
16829;DHT22;8531;48.078;11.968;2023-03-16T16:20:21;10.40;99.90
16829;DHT22;8531;48.078;11.968;2023-03-16T16:22:47;10.40;99.90
16829;DHT22;8531;48.078;11.968;2023-03-16T16:25:13;10.30;99.90
16829;DHT22;8531;48.078;11.968;2023-03-16T16:27:39;10.30;99.90
16829;DHT22;8531;48.078;11.968;2023-03-16T16:30:26;10.50;99.90
16829;DHT22;8531;48.078;11.968;2023-03-16T16:32:53;10.40;99.90
16829;DHT22;8531;48.078;11.968;2023-03-16T16:35:21;10.30;99.90
16829;DHT22;8531;48.078;11.968;2023-03-16T16:37:47;10.40;99.90
16829;DHT22;8531;48.078;11.968;2023-03-16T16:40:22;10.10;99.90
16829;DHT22;8531;48.078;11.968;2023-03-16T16:42:51;9.90;99.90
16829;DHT22;8531;48.078;11.968;2023-03-16T16:45:22;9.90;99.90
16829;DHT22;8531;48.078;11.968;2023-03-16T16:47:53;9.90;99.90
16829;DHT22;8531;48.078;11.968;2023-03-16T16:50:26;9.80;99.90
16829;DHT22;8531;48.078;11.968;2023-03-16T16:52:53;9.70;99.90
16829;DHT22;8531;48.078;11.968;2023-03-16T16:55:21;9.70;99.90
16829;DHT22;8531;48.078;11.968;2023-03-16T16:57:48;9.60;99.90
16829;DHT22;8531;48.078;11.968;2023-03-16T17:00:22;9.50;99.90
16829;DHT22;8531;48.078;11.968;2023-03-16T17:02:53;9.40;99.90
16829;DHT22;8531;48.078;11.968;2023-03-16T17:05:25;9.30;99.90
16829;DHT22;8531;48.078;11.968;2023-03-16T17:07:52;9.10;99.90
16829;DHT22;8531;48.078;11.968;2023-03-16T17:10:22;8.90;99.90
16829;DHT22;8531;48.078;11.968;2023-03-16T17:12:52;8.80;99.90
16829;DHT22;8531;48.078;11.968;2023-03-16T17:15:25;8.70;99.90
16829;DHT22;8531;48.078;11.968;2023-03-16T17:18:08;8.60;99.90